sensor_id;sensor_type;location;lat;lon;timestamp;P1;durP1;ratioP1;P2;durP2;ratioP2
21554;SDS011;10938;44.794;-0.676;2022-11-23T00:00:00;72.68;;;10.82;;
21554;SDS011;10938;44.794;-0.676;2022-11-23T00:02:26;95.03;;;12.35;;
21554;SDS011;10938;44.794;-0.676;2022-11-23T00:04:51;97.93;;;13.77;;
21554;SDS011;10938;44.794;-0.676;2022-11-23T00:07:17;76.70;;;11.65;;
21554;SDS011;10938;44.794;-0.676;2022-11-23T00:09:42;87.80;;;14.45;;
21554;SDS011;10938;44.794;-0.676;2022-11-23T00:12:08;86.07;;;13.73;;
21554;SDS011;10938;44.794;-0.676;2022-11-23T00:14:34;69.18;;;10.45;;
21554;SDS011;10938;44.794;-0.676;2022-11-23T00:17:00;97.97;;;13.05;;
21554;SDS011;10938;44.794;-0.676;2022-11-23T00:19:25;80.53;;;11.55;;
21554;SDS011;10938;44.794;-0.676;2022-11-23T00:21:51;79.97;;;11.65;;
21554;SDS011;10938;44.794;-0.676;2022-11-23T00:24:16;81.97;;;12.02;;
21554;SDS011;10938;44.794;-0.676;2022-11-23T00:26:42;79.40;;;12.30;;
21554;SDS011;10938;44.794;-0.676;2022-11-23T00:29:07;73.32;;;11.98;;
21554;SDS011;10938;44.794;-0.676;2022-11-23T00:31:32;71.95;;;12.18;;
21554;SDS011;10938;44.794;-0.676;2022-11-23T00:33:58;81.28;;;11.38;;
21554;SDS011;10938;44.794;-0.676;2022-11-23T00:36:24;82.20;;;11.15;;
21554;SDS011;10938;44.794;-0.676;2022-11-23T00:38:51;76.47;;;11.35;;
21554;SDS011;10938;44.794;-0.676;2022-11-23T00:41:19;84.20;;;12.23;;
21554;SDS011;10938;44.794;-0.676;2022-11-23T00:43:48;73.80;;;11.93;;
21554;SDS011;10938;44.794;-0.676;2022-11-23T00:48:45;79.25;;;11.30;;
21554;SDS011;10938;44.794;-0.676;2022-11-23T00:51:13;57.65;;;9.85;;
21554;SDS011;10938;44.794;-0.676;2022-11-23T00:53:40;63.10;;;10.73;;
21554;SDS011;10938;44.794;-0.676;2022-11-23T00:56:06;80.10;;;10.65;;
21554;SDS011;10938;44.794;-0.676;2022-11-23T00:58:32;70.18;;;10.07;;
21554;SDS011;10938;44.794;-0.676;2022-11-23T01:01:12;64.70;;;11.30;;
21554;SDS011;10938;44.794;-0.676;2022-11-23T01:03:40;69.53;;;10.15;;
21554;SDS011;10938;44.794;-0.676;2022-11-23T01:06:09;70.90;;;10.05;;
21554;SDS011;10938;44.794;-0.676;2022-11-23T01:08:36;56.25;;;9.07;;
21554;SDS011;10938;44.794;-0.676;2022-11-23T01:11:03;51.05;;;9.23;;
21554;SDS011;10938;44.794;-0.676;2022-11-23T01:13:32;62.90;;;9.65;;
21554;SDS011;10938;44.794;-0.676;2022-11-23T01:15:58;60.33;;;8.68;;
21554;SDS011;10938;44.794;-0.676;2022-11-23T01:18:24;58.70;;;9.00;;
21554;SDS011;10938;44.794;-0.676;2022-11-23T01:20:50;44.97;;;7.43;;
21554;SDS011;10938;44.794;-0.676;2022-11-23T01:23:16;58.75;;;7.72;;
21554;SDS011;10938;44.794;-0.676;2022-11-23T01:25:41;47.90;;;7.22;;
21554;SDS011;10938;44.794;-0.676;2022-11-23T01:28:07;51.63;;;7.45;;
21554;SDS011;10938;44.794;-0.676;2022-11-23T01:30:33;50.45;;;8.05;;
21554;SDS011;10938;44.794;-0.676;2022-11-23T01:33:00;48.03;;;7.47;;
21554;SDS011;10938;44.794;-0.676;2022-11-23T01:35:26;50.38;;;8.27;;
21554;SDS011;10938;44.794;-0.676;2022-11-23T01:37:52;52.50;;;8.57;;
21554;SDS011;10938;44.794;-0.676;2022-11-23T01:40:18;51.72;;;7.38;;
21554;SDS011;10938;44.794;-0.676;2022-11-23T01:48:12;40.05;;;6.93;;
21554;SDS011;10938;44.794;-0.676;2022-11-23T01:50:42;54.78;;;7.80;;
21554;SDS011;10938;44.794;-0.676;2022-11-23T01:53:10;55.55;;;7.80;;
21554;SDS011;10938;44.794;-0.676;2022-11-23T01:55:36;42.83;;;6.90;;
21554;SDS011;10938;44.794;-0.676;2022-11-23T01:58:03;40.67;;;6.40;;
21554;SDS011;10938;44.794;-0.676;2022-11-23T02:03:13;43.60;;;6.20;;
21554;SDS011;10938;44.794;-0.676;2022-11-23T02:08:23;46.17;;;6.20;;
21554;SDS011;10938;44.794;-0.676;2022-11-23T02:10:59;37.03;;;6.00;;
21554;SDS011;10938;44.794;-0.676;2022-11-23T02:13:29;38.17;;;5.75;;
21554;SDS011;10938;44.794;-0.676;2022-11-23T02:16:01;39.42;;;6.43;;
21554;SDS011;10938;44.794;-0.676;2022-11-23T02:18:31;34.00;;;5.70;;
21554;SDS011;10938;44.794;-0.676;2022-11-23T02:21:00;35.72;;;6.60;;
21554;SDS011;10938;44.794;-0.676;2022-11-23T02:26:24;34.78;;;5.55;;
21554;SDS011;10938;44.794;-0.676;2022-11-23T02:31:45;41.35;;;6.25;;
21554;SDS011;10938;44.794;-0.676;2022-11-23T02:34:38;39.20;;;5.55;;
21554;SDS011;10938;44.794;-0.676;2022-11-23T02:37:04;34.50;;;4.93;;
21554;SDS011;10938;44.794;-0.676;2022-11-23T02:39:32;36.67;;;5.13;;
21554;SDS011;10938;44.794;-0.676;2022-11-23T02:42:02;37.45;;;5.20;;
21554;SDS011;10938;44.794;-0.676;2022-11-23T02:47:12;28.50;;;4.55;;
21554;SDS011;10938;44.794;-0.676;2022-11-23T02:49:40;33.47;;;5.18;;
21554;SDS011;10938;44.794;-0.676;2022-11-23T02:52:10;25.67;;;4.40;;
21554;SDS011;10938;44.794;-0.676;2022-11-23T02:54:39;25.20;;;4.47;;
21554;SDS011;10938;44.794;-0.676;2022-11-23T02:57:05;23.88;;;4.88;;
21554;SDS011;10938;44.794;-0.676;2022-11-23T02:59:32;28.42;;;5.05;;
21554;SDS011;10938;44.794;-0.676;2022-11-23T03:02:00;21.98;;;3.83;;
21554;SDS011;10938;44.794;-0.676;2022-11-23T03:04:26;24.55;;;4.50;;
21554;SDS011;10938;44.794;-0.676;2022-11-23T03:06:51;22.27;;;4.22;;
21554;SDS011;10938;44.794;-0.676;2022-11-23T03:09:17;32.03;;;4.70;;
21554;SDS011;10938;44.794;-0.676;2022-11-23T03:11:42;36.50;;;5.40;;
21554;SDS011;10938;44.794;-0.676;2022-11-23T03:14:08;31.27;;;5.05;;
21554;SDS011;10938;44.794;-0.676;2022-11-23T03:16:34;21.67;;;4.32;;
21554;SDS011;10938;44.794;-0.676;2022-11-23T03:18:59;23.02;;;3.72;;
21554;SDS011;10938;44.794;-0.676;2022-11-23T03:21:25;26.42;;;4.28;;
21554;SDS011;10938;44.794;-0.676;2022-11-23T03:23:50;22.00;;;3.58;;
21554;SDS011;10938;44.794;-0.676;2022-11-23T03:26:16;17.98;;;3.15;;
21554;SDS011;10938;44.794;-0.676;2022-11-23T03:28:42;29.63;;;4.55;;
21554;SDS011;10938;44.794;-0.676;2022-11-23T03:31:07;24.33;;;3.80;;
21554;SDS011;10938;44.794;-0.676;2022-11-23T03:33:33;26.15;;;3.92;;
21554;SDS011;10938;44.794;-0.676;2022-11-23T03:35:59;25.23;;;4.22;;
21554;SDS011;10938;44.794;-0.676;2022-11-23T03:38:24;25.95;;;4.13;;
21554;SDS011;10938;44.794;-0.676;2022-11-23T03:40:50;21.85;;;4.10;;
21554;SDS011;10938;44.794;-0.676;2022-11-23T03:43:16;28.98;;;4.70;;
21554;SDS011;10938;44.794;-0.676;2022-11-23T03:45:41;25.00;;;4.18;;
21554;SDS011;10938;44.794;-0.676;2022-11-23T03:48:07;15.85;;;3.75;;
21554;SDS011;10938;44.794;-0.676;2022-11-23T03:50:33;21.40;;;3.90;;
21554;SDS011;10938;44.794;-0.676;2022-11-23T03:52:59;25.63;;;7.88;;
21554;SDS011;10938;44.794;-0.676;2022-11-23T03:55:25;21.23;;;6.10;;
21554;SDS011;10938;44.794;-0.676;2022-11-23T03:57:51;23.67;;;5.38;;
21554;SDS011;10938;44.794;-0.676;2022-11-23T04:00:18;24.75;;;6.32;;
21554;SDS011;10938;44.794;-0.676;2022-11-23T04:02:44;17.65;;;4.93;;
21554;SDS011;10938;44.794;-0.676;2022-11-23T04:05:09;19.63;;;4.28;;
21554;SDS011;10938;44.794;-0.676;2022-11-23T04:07:35;19.20;;;4.50;;
21554;SDS011;10938;44.794;-0.676;2022-11-23T04:10:00;14.35;;;3.22;;
21554;SDS011;10938;44.794;-0.676;2022-11-23T04:12:26;18.02;;;3.13;;
21554;SDS011;10938;44.794;-0.676;2022-11-23T04:14:51;15.68;;;2.92;;
21554;SDS011;10938;44.794;-0.676;2022-11-23T04:17:17;19.52;;;2.90;;
21554;SDS011;10938;44.794;-0.676;2022-11-23T04:19:42;16.67;;;2.78;;
21554;SDS011;10938;44.794;-0.676;2022-11-23T04:22:08;12.65;;;2.78;;
21554;SDS011;10938;44.794;-0.676;2022-11-23T04:24:35;16.40;;;2.92;;
21554;SDS011;10938;44.794;-0.676;2022-11-23T04:27:00;13.25;;;3.42;;
21554;SDS011;10938;44.794;-0.676;2022-11-23T04:29:26;14.15;;;3.33;;
21554;SDS011;10938;44.794;-0.676;2022-11-23T04:31:51;15.50;;;3.53;;
21554;SDS011;10938;44.794;-0.676;2022-11-23T04:34:17;13.02;;;2.78;;
21554;SDS011;10938;44.794;-0.676;2022-11-23T04:36:43;8.93;;;2.40;;
21554;SDS011;10938;44.794;-0.676;2022-11-23T04:39:09;9.30;;;2.30;;
21554;SDS011;10938;44.794;-0.676;2022-11-23T04:41:36;7.80;;;2.00;;
21554;SDS011;10938;44.794;-0.676;2022-11-23T04:44:03;9.85;;;2.38;;
21554;SDS011;10938;44.794;-0.676;2022-11-23T04:46:29;9.63;;;2.00;;
21554;SDS011;10938;44.794;-0.676;2022-11-23T04:48:54;6.18;;;1.63;;
21554;SDS011;10938;44.794;-0.676;2022-11-23T04:51:20;6.15;;;1.75;;
21554;SDS011;10938;44.794;-0.676;2022-11-23T04:53:46;6.15;;;1.65;;
21554;SDS011;10938;44.794;-0.676;2022-11-23T04:56:11;5.97;;;1.50;;
21554;SDS011;10938;44.794;-0.676;2022-11-23T04:58:37;4.90;;;1.50;;
21554;SDS011;10938;44.794;-0.676;2022-11-23T05:01:02;5.65;;;1.58;;
21554;SDS011;10938;44.794;-0.676;2022-11-23T05:03:29;6.70;;;1.70;;
21554;SDS011;10938;44.794;-0.676;2022-11-23T05:05:58;10.98;;;1.88;;
21554;SDS011;10938;44.794;-0.676;2022-11-23T05:08:23;4.00;;;1.40;;
21554;SDS011;10938;44.794;-0.676;2022-11-23T05:10:49;4.05;;;1.25;;
21554;SDS011;10938;44.794;-0.676;2022-11-23T05:13:14;3.08;;;1.20;;
21554;SDS011;10938;44.794;-0.676;2022-11-23T05:15:40;4.78;;;1.42;;
21554;SDS011;10938;44.794;-0.676;2022-11-23T05:18:05;4.15;;;1.40;;
21554;SDS011;10938;44.794;-0.676;2022-11-23T05:20:32;6.13;;;1.50;;
21554;SDS011;10938;44.794;-0.676;2022-11-23T05:22:58;6.15;;;1.60;;
21554;SDS011;10938;44.794;-0.676;2022-11-23T05:25:24;8.25;;;1.60;;
21554;SDS011;10938;44.794;-0.676;2022-11-23T05:27:51;7.63;;;2.53;;
21554;SDS011;10938;44.794;-0.676;2022-11-23T05:30:17;12.85;;;5.13;;
21554;SDS011;10938;44.794;-0.676;2022-11-23T05:32:43;8.10;;;3.17;;
21554;SDS011;10938;44.794;-0.676;2022-11-23T05:35:09;7.15;;;2.55;;
21554;SDS011;10938;44.794;-0.676;2022-11-23T05:37:34;6.53;;;3.00;;
21554;SDS011;10938;44.794;-0.676;2022-11-23T05:40:00;8.55;;;3.63;;
21554;SDS011;10938;44.794;-0.676;2022-11-23T05:42:26;6.85;;;2.50;;
21554;SDS011;10938;44.794;-0.676;2022-11-23T05:44:52;6.47;;;3.97;;
21554;SDS011;10938;44.794;-0.676;2022-11-23T05:47:17;7.47;;;3.72;;
21554;SDS011;10938;44.794;-0.676;2022-11-23T05:49:42;13.68;;;5.00;;
21554;SDS011;10938;44.794;-0.676;2022-11-23T05:52:08;9.43;;;3.80;;
21554;SDS011;10938;44.794;-0.676;2022-11-23T05:54:34;6.10;;;2.33;;
21554;SDS011;10938;44.794;-0.676;2022-11-23T05:56:59;5.38;;;2.40;;
21554;SDS011;10938;44.794;-0.676;2022-11-23T05:59:25;6.30;;;2.30;;
21554;SDS011;10938;44.794;-0.676;2022-11-23T06:01:50;4.07;;;2.30;;
21554;SDS011;10938;44.794;-0.676;2022-11-23T06:04:16;6.72;;;2.10;;
21554;SDS011;10938;44.794;-0.676;2022-11-23T06:06:42;4.90;;;2.00;;
21554;SDS011;10938;44.794;-0.676;2022-11-23T06:09:08;6.53;;;2.83;;
21554;SDS011;10938;44.794;-0.676;2022-11-23T06:11:34;7.75;;;3.30;;
21554;SDS011;10938;44.794;-0.676;2022-11-23T06:14:00;7.07;;;3.40;;
21554;SDS011;10938;44.794;-0.676;2022-11-23T06:16:25;5.97;;;3.15;;
21554;SDS011;10938;44.794;-0.676;2022-11-23T06:18:51;11.00;;;3.30;;
21554;SDS011;10938;44.794;-0.676;2022-11-23T06:21:17;5.18;;;3.17;;
21554;SDS011;10938;44.794;-0.676;2022-11-23T06:23:42;8.48;;;2.92;;
21554;SDS011;10938;44.794;-0.676;2022-11-23T06:26:08;4.80;;;2.53;;
21554;SDS011;10938;44.794;-0.676;2022-11-23T06:28:33;3.63;;;2.08;;
21554;SDS011;10938;44.794;-0.676;2022-11-23T06:31:02;4.40;;;2.38;;
21554;SDS011;10938;44.794;-0.676;2022-11-23T06:33:29;5.20;;;2.50;;
21554;SDS011;10938;44.794;-0.676;2022-11-23T06:35:55;2.15;;;1.95;;
21554;SDS011;10938;44.794;-0.676;2022-11-23T06:38:23;4.10;;;2.00;;
21554;SDS011;10938;44.794;-0.676;2022-11-23T06:40:49;4.60;;;1.90;;
21554;SDS011;10938;44.794;-0.676;2022-11-23T06:43:14;3.65;;;2.03;;
21554;SDS011;10938;44.794;-0.676;2022-11-23T06:45:40;4.97;;;1.98;;
21554;SDS011;10938;44.794;-0.676;2022-11-23T06:48:06;3.83;;;1.88;;
21554;SDS011;10938;44.794;-0.676;2022-11-23T06:50:31;2.72;;;1.60;;
21554;SDS011;10938;44.794;-0.676;2022-11-23T06:52:57;2.55;;;1.50;;
21554;SDS011;10938;44.794;-0.676;2022-11-23T06:55:23;2.53;;;1.48;;
21554;SDS011;10938;44.794;-0.676;2022-11-23T06:57:49;4.38;;;1.55;;
21554;SDS011;10938;44.794;-0.676;2022-11-23T07:00:15;4.55;;;1.80;;
21554;SDS011;10938;44.794;-0.676;2022-11-23T07:02:41;5.25;;;1.73;;
21554;SDS011;10938;44.794;-0.676;2022-11-23T07:05:07;6.03;;;1.83;;
21554;SDS011;10938;44.794;-0.676;2022-11-23T07:07:33;3.33;;;1.58;;
21554;SDS011;10938;44.794;-0.676;2022-11-23T07:09:58;3.95;;;1.48;;
21554;SDS011;10938;44.794;-0.676;2022-11-23T07:12:24;3.58;;;1.10;;
21554;SDS011;10938;44.794;-0.676;2022-11-23T07:14:49;4.85;;;1.40;;
21554;SDS011;10938;44.794;-0.676;2022-11-23T07:17:15;1.95;;;1.13;;
21554;SDS011;10938;44.794;-0.676;2022-11-23T07:19:40;2.63;;;0.80;;
21554;SDS011;10938;44.794;-0.676;2022-11-23T07:22:06;2.33;;;0.90;;
21554;SDS011;10938;44.794;-0.676;2022-11-23T07:24:31;3.10;;;1.40;;
21554;SDS011;10938;44.794;-0.676;2022-11-23T07:26:57;2.88;;;1.10;;
21554;SDS011;10938;44.794;-0.676;2022-11-23T07:29:22;3.05;;;1.40;;
21554;SDS011;10938;44.794;-0.676;2022-11-23T07:31:47;4.57;;;1.33;;
21554;SDS011;10938;44.794;-0.676;2022-11-23T07:34:13;2.50;;;1.52;;
21554;SDS011;10938;44.794;-0.676;2022-11-23T07:36:38;2.10;;;1.20;;
21554;SDS011;10938;44.794;-0.676;2022-11-23T07:39:04;5.07;;;1.10;;
21554;SDS011;10938;44.794;-0.676;2022-11-23T07:41:30;1.83;;;1.25;;
21554;SDS011;10938;44.794;-0.676;2022-11-23T07:43:55;2.22;;;1.35;;
21554;SDS011;10938;44.794;-0.676;2022-11-23T07:46:21;4.55;;;1.30;;
21554;SDS011;10938;44.794;-0.676;2022-11-23T07:48:46;3.38;;;1.30;;
21554;SDS011;10938;44.794;-0.676;2022-11-23T07:51:12;5.53;;;1.50;;
21554;SDS011;10938;44.794;-0.676;2022-11-23T07:53:43;5.22;;;1.48;;
21554;SDS011;10938;44.794;-0.676;2022-11-23T07:56:11;4.60;;;1.38;;
21554;SDS011;10938;44.794;-0.676;2022-11-23T07:58:37;4.85;;;1.80;;
21554;SDS011;10938;44.794;-0.676;2022-11-23T08:01:02;5.90;;;1.85;;
21554;SDS011;10938;44.794;-0.676;2022-11-23T08:03:29;6.30;;;1.77;;
21554;SDS011;10938;44.794;-0.676;2022-11-23T08:06:00;5.78;;;1.80;;
21554;SDS011;10938;44.794;-0.676;2022-11-23T08:08:30;3.90;;;1.42;;
21554;SDS011;10938;44.794;-0.676;2022-11-23T08:10:55;7.38;;;1.90;;
21554;SDS011;10938;44.794;-0.676;2022-11-23T08:13:21;8.80;;;2.15;;
21554;SDS011;10938;44.794;-0.676;2022-11-23T08:15:46;7.07;;;1.80;;
21554;SDS011;10938;44.794;-0.676;2022-11-23T08:24:57;3.40;;;1.40;;
21554;SDS011;10938;44.794;-0.676;2022-11-23T08:27:26;6.43;;;1.50;;
21554;SDS011;10938;44.794;-0.676;2022-11-23T08:29:52;19.02;;;1.98;;
21554;SDS011;10938;44.794;-0.676;2022-11-23T08:32:17;13.80;;;2.55;;
21554;SDS011;10938;44.794;-0.676;2022-11-23T08:34:43;6.95;;;1.65;;
21554;SDS011;10938;44.794;-0.676;2022-11-23T08:37:08;15.32;;;5.00;;
21554;SDS011;10938;44.794;-0.676;2022-11-23T08:39:34;32.92;;;16.10;;
21554;SDS011;10938;44.794;-0.676;2022-11-23T08:41:59;30.58;;;16.42;;
21554;SDS011;10938;44.794;-0.676;2022-11-23T08:44:25;34.28;;;21.88;;
21554;SDS011;10938;44.794;-0.676;2022-11-23T08:46:50;21.58;;;7.20;;
21554;SDS011;10938;44.794;-0.676;2022-11-23T08:49:16;22.70;;;5.55;;
21554;SDS011;10938;44.794;-0.676;2022-11-23T08:51:42;18.95;;;3.72;;
21554;SDS011;10938;44.794;-0.676;2022-11-23T08:54:07;23.75;;;5.70;;
21554;SDS011;10938;44.794;-0.676;2022-11-23T08:56:33;33.72;;;6.93;;
21554;SDS011;10938;44.794;-0.676;2022-11-23T08:58:59;24.60;;;6.03;;
21554;SDS011;10938;44.794;-0.676;2022-11-23T09:01:25;29.02;;;4.30;;
21554;SDS011;10938;44.794;-0.676;2022-11-23T09:03:54;25.42;;;5.03;;
21554;SDS011;10938;44.794;-0.676;2022-11-23T09:06:20;31.83;;;5.32;;
21554;SDS011;10938;44.794;-0.676;2022-11-23T09:08:52;42.10;;;6.60;;
21554;SDS011;10938;44.794;-0.676;2022-11-23T09:11:18;34.45;;;5.97;;
21554;SDS011;10938;44.794;-0.676;2022-11-23T09:13:43;31.67;;;6.07;;
21554;SDS011;10938;44.794;-0.676;2022-11-23T09:16:09;29.65;;;5.32;;
21554;SDS011;10938;44.794;-0.676;2022-11-23T09:18:34;31.75;;;4.70;;
21554;SDS011;10938;44.794;-0.676;2022-11-23T09:21:03;34.45;;;5.88;;
21554;SDS011;10938;44.794;-0.676;2022-11-23T09:23:30;31.02;;;6.55;;
21554;SDS011;10938;44.794;-0.676;2022-11-23T09:25:59;35.85;;;6.50;;
21554;SDS011;10938;44.794;-0.676;2022-11-23T09:28:25;36.30;;;6.63;;
21554;SDS011;10938;44.794;-0.676;2022-11-23T09:30:53;38.80;;;6.47;;
21554;SDS011;10938;44.794;-0.676;2022-11-23T09:33:19;33.22;;;6.45;;
21554;SDS011;10938;44.794;-0.676;2022-11-23T09:35:45;36.28;;;7.22;;
21554;SDS011;10938;44.794;-0.676;2022-11-23T09:38:11;33.75;;;5.72;;
21554;SDS011;10938;44.794;-0.676;2022-11-23T09:40:38;34.63;;;6.95;;
21554;SDS011;10938;44.794;-0.676;2022-11-23T09:51:38;24.83;;;6.60;;
21554;SDS011;10938;44.794;-0.676;2022-11-23T09:54:29;26.98;;;7.88;;
21554;SDS011;10938;44.794;-0.676;2022-11-23T09:56:56;27.77;;;5.47;;
21554;SDS011;10938;44.794;-0.676;2022-11-23T10:01:54;24.63;;;4.75;;
21554;SDS011;10938;44.794;-0.676;2022-11-23T10:04:23;21.65;;;4.38;;
21554;SDS011;10938;44.794;-0.676;2022-11-23T10:06:53;18.98;;;4.75;;
21554;SDS011;10938;44.794;-0.676;2022-11-23T10:09:30;22.45;;;4.70;;
21554;SDS011;10938;44.794;-0.676;2022-11-23T10:18:24;25.15;;;5.18;;
21554;SDS011;10938;44.794;-0.676;2022-11-23T10:20:36;26.42;;;6.47;;
21554;SDS011;10938;44.794;-0.676;2022-11-23T10:23:02;28.15;;;6.70;;
21554;SDS011;10938;44.794;-0.676;2022-11-23T10:26:12;22.05;;;4.60;;
21554;SDS011;10938;44.794;-0.676;2022-11-23T10:28:34;24.47;;;5.53;;
21554;SDS011;10938;44.794;-0.676;2022-11-23T10:31:20;26.95;;;5.95;;
21554;SDS011;10938;44.794;-0.676;2022-11-23T10:36:20;26.83;;;6.22;;
21554;SDS011;10938;44.794;-0.676;2022-11-23T10:38:47;40.50;;;7.53;;
21554;SDS011;10938;44.794;-0.676;2022-11-23T10:41:15;32.97;;;7.88;;
21554;SDS011;10938;44.794;-0.676;2022-11-23T10:49:08;23.27;;;5.50;;
21554;SDS011;10938;44.794;-0.676;2022-11-23T10:51:39;30.90;;;6.10;;
21554;SDS011;10938;44.794;-0.676;2022-11-23T10:54:07;33.00;;;6.57;;
21554;SDS011;10938;44.794;-0.676;2022-11-23T10:56:55;29.40;;;5.90;;
21554;SDS011;10938;44.794;-0.676;2022-11-23T10:59:32;32.17;;;6.03;;
21554;SDS011;10938;44.794;-0.676;2022-11-23T11:04:42;19.65;;;5.60;;
21554;SDS011;10938;44.794;-0.676;2022-11-23T11:07:22;24.13;;;5.55;;
21554;SDS011;10938;44.794;-0.676;2022-11-23T11:09:54;28.05;;;6.43;;
21554;SDS011;10938;44.794;-0.676;2022-11-23T11:12:20;28.73;;;6.18;;
21554;SDS011;10938;44.794;-0.676;2022-11-23T11:14:55;24.92;;;5.40;;
21554;SDS011;10938;44.794;-0.676;2022-11-23T11:17:28;30.08;;;6.05;;
21554;SDS011;10938;44.794;-0.676;2022-11-23T11:20:22;31.63;;;5.88;;
21554;SDS011;10938;44.794;-0.676;2022-11-23T11:23:15;28.65;;;5.63;;
21554;SDS011;10938;44.794;-0.676;2022-11-23T11:25:44;29.40;;;5.97;;
21554;SDS011;10938;44.794;-0.676;2022-11-23T11:28:25;28.23;;;6.13;;
21554;SDS011;10938;44.794;-0.676;2022-11-23T11:37:43;23.45;;;5.00;;
21554;SDS011;10938;44.794;-0.676;2022-11-23T11:42:37;18.35;;;3.50;;
21554;SDS011;10938;44.794;-0.676;2022-11-23T11:45:28;19.48;;;3.63;;
21554;SDS011;10938;44.794;-0.676;2022-11-23T11:48:00;16.65;;;3.28;;
21554;SDS011;10938;44.794;-0.676;2022-11-23T11:50:32;16.17;;;4.78;;
21554;SDS011;10938;44.794;-0.676;2022-11-23T11:53:04;18.92;;;3.90;;
21554;SDS011;10938;44.794;-0.676;2022-11-23T11:58:15;17.33;;;4.15;;
21554;SDS011;10938;44.794;-0.676;2022-11-23T12:00:41;20.05;;;4.45;;
21554;SDS011;10938;44.794;-0.676;2022-11-23T12:03:16;20.75;;;4.00;;
21554;SDS011;10938;44.794;-0.676;2022-11-23T12:05:51;17.67;;;3.70;;
21554;SDS011;10938;44.794;-0.676;2022-11-23T12:11:02;26.00;;;4.88;;
21554;SDS011;10938;44.794;-0.676;2022-11-23T12:13:36;31.25;;;5.75;;
21554;SDS011;10938;44.794;-0.676;2022-11-23T12:24:03;29.23;;;5.65;;
21554;SDS011;10938;44.794;-0.676;2022-11-23T12:26:46;24.17;;;5.13;;
21554;SDS011;10938;44.794;-0.676;2022-11-23T12:35:30;29.15;;;5.95;;
21554;SDS011;10938;44.794;-0.676;2022-11-23T12:38:03;29.85;;;6.10;;
21554;SDS011;10938;44.794;-0.676;2022-11-23T12:43:08;31.23;;;5.63;;
21554;SDS011;10938;44.794;-0.676;2022-11-23T12:46:03;22.67;;;4.85;;
21554;SDS011;10938;44.794;-0.676;2022-11-23T12:59:19;23.90;;;5.13;;
21554;SDS011;10938;44.794;-0.676;2022-11-23T13:01:49;21.98;;;4.53;;
21554;SDS011;10938;44.794;-0.676;2022-11-23T13:15:54;23.48;;;5.40;;
21554;SDS011;10938;44.794;-0.676;2022-11-23T13:21:27;26.77;;;4.97;;
21554;SDS011;10938;44.794;-0.676;2022-11-23T13:40:29;22.98;;;5.20;;
21554;SDS011;10938;44.794;-0.676;2022-11-23T13:48:55;19.02;;;5.03;;
21554;SDS011;10938;44.794;-0.676;2022-11-23T13:53:59;19.20;;;4.78;;
21554;SDS011;10938;44.794;-0.676;2022-11-23T13:56:32;22.45;;;4.68;;
21554;SDS011;10938;44.794;-0.676;2022-11-23T14:01:58;23.08;;;4.90;;
21554;SDS011;10938;44.794;-0.676;2022-11-23T14:04:27;24.02;;;4.68;;
21554;SDS011;10938;44.794;-0.676;2022-11-23T14:07:02;22.98;;;4.28;;
21554;SDS011;10938;44.794;-0.676;2022-11-23T14:09:44;21.83;;;4.45;;
21554;SDS011;10938;44.794;-0.676;2022-11-23T14:18:09;22.63;;;4.18;;
21554;SDS011;10938;44.794;-0.676;2022-11-23T14:43:33;17.67;;;4.05;;
21554;SDS011;10938;44.794;-0.676;2022-11-23T14:46:04;27.13;;;4.65;;
21554;SDS011;10938;44.794;-0.676;2022-11-23T14:48:37;18.90;;;3.63;;
21554;SDS011;10938;44.794;-0.676;2022-11-23T14:51:38;18.67;;;4.30;;
21554;SDS011;10938;44.794;-0.676;2022-11-23T14:53:56;25.02;;;5.18;;
21554;SDS011;10938;44.794;-0.676;2022-11-23T14:59:03;24.63;;;5.75;;
21554;SDS011;10938;44.794;-0.676;2022-11-23T15:01:32;21.20;;;4.88;;
21554;SDS011;10938;44.794;-0.676;2022-11-23T15:04:05;17.92;;;4.47;;
21554;SDS011;10938;44.794;-0.676;2022-11-23T15:06:34;25.23;;;5.53;;
21554;SDS011;10938;44.794;-0.676;2022-11-23T15:12:21;25.35;;;4.80;;
21554;SDS011;10938;44.794;-0.676;2022-11-23T15:14:50;23.10;;;4.53;;
21554;SDS011;10938;44.794;-0.676;2022-11-23T15:17:21;25.05;;;5.68;;
21554;SDS011;10938;44.794;-0.676;2022-11-23T15:19:56;19.90;;;3.92;;
21554;SDS011;10938;44.794;-0.676;2022-11-23T15:22:24;21.73;;;4.32;;
21554;SDS011;10938;44.794;-0.676;2022-11-23T15:24:52;21.15;;;4.40;;
21554;SDS011;10938;44.794;-0.676;2022-11-23T15:27:25;19.42;;;4.07;;
21554;SDS011;10938;44.794;-0.676;2022-11-23T15:29:56;19.75;;;3.38;;
21554;SDS011;10938;44.794;-0.676;2022-11-23T15:32:31;19.23;;;3.28;;
21554;SDS011;10938;44.794;-0.676;2022-11-23T15:35:00;12.38;;;3.05;;
21554;SDS011;10938;44.794;-0.676;2022-11-23T15:37:37;17.23;;;3.30;;
21554;SDS011;10938;44.794;-0.676;2022-11-23T15:40:12;19.23;;;5.07;;
21554;SDS011;10938;44.794;-0.676;2022-11-23T15:42:40;17.60;;;4.65;;
21554;SDS011;10938;44.794;-0.676;2022-11-23T15:48:16;11.32;;;3.53;;
21554;SDS011;10938;44.794;-0.676;2022-11-23T15:53:27;19.25;;;4.25;;
21554;SDS011;10938;44.794;-0.676;2022-11-23T15:56:02;16.67;;;3.70;;
21554;SDS011;10938;44.794;-0.676;2022-11-23T15:58:30;16.70;;;3.90;;
21554;SDS011;10938;44.794;-0.676;2022-11-23T16:03:56;16.08;;;4.15;;
21554;SDS011;10938;44.794;-0.676;2022-11-23T16:06:41;16.25;;;5.72;;
21554;SDS011;10938;44.794;-0.676;2022-11-23T16:11:57;15.55;;;4.20;;
21554;SDS011;10938;44.794;-0.676;2022-11-23T16:14:26;14.35;;;4.35;;
21554;SDS011;10938;44.794;-0.676;2022-11-23T16:17:03;15.65;;;4.40;;
21554;SDS011;10938;44.794;-0.676;2022-11-23T16:19:37;15.93;;;6.07;;
21554;SDS011;10938;44.794;-0.676;2022-11-23T16:22:03;20.42;;;6.18;;
21554;SDS011;10938;44.794;-0.676;2022-11-23T16:24:32;18.52;;;6.13;;
21554;SDS011;10938;44.794;-0.676;2022-11-23T16:27:00;18.17;;;4.82;;
21554;SDS011;10938;44.794;-0.676;2022-11-23T16:29:36;22.60;;;4.63;;
21554;SDS011;10938;44.794;-0.676;2022-11-23T16:32:02;19.13;;;4.03;;
21554;SDS011;10938;44.794;-0.676;2022-11-23T16:34:31;14.45;;;3.90;;
21554;SDS011;10938;44.794;-0.676;2022-11-23T16:36:59;18.60;;;5.05;;
21554;SDS011;10938;44.794;-0.676;2022-11-23T16:39:28;16.88;;;4.13;;
21554;SDS011;10938;44.794;-0.676;2022-11-23T16:41:53;15.77;;;4.60;;
21554;SDS011;10938;44.794;-0.676;2022-11-23T16:44:20;14.50;;;3.90;;
21554;SDS011;10938;44.794;-0.676;2022-11-23T16:46:49;27.75;;;9.90;;
21554;SDS011;10938;44.794;-0.676;2022-11-23T16:49:16;19.27;;;5.75;;
21554;SDS011;10938;44.794;-0.676;2022-11-23T16:51:44;35.83;;;19.08;;
21554;SDS011;10938;44.794;-0.676;2022-11-23T16:54:14;16.35;;;6.57;;
21554;SDS011;10938;44.794;-0.676;2022-11-23T16:56:41;17.90;;;7.47;;
21554;SDS011;10938;44.794;-0.676;2022-11-23T16:59:09;18.13;;;7.25;;
21554;SDS011;10938;44.794;-0.676;2022-11-23T17:01:40;17.63;;;7.47;;
21554;SDS011;10938;44.794;-0.676;2022-11-23T17:04:09;21.10;;;7.85;;
21554;SDS011;10938;44.794;-0.676;2022-11-23T17:06:37;17.52;;;6.78;;
21554;SDS011;10938;44.794;-0.676;2022-11-23T17:09:05;19.80;;;6.20;;
21554;SDS011;10938;44.794;-0.676;2022-11-23T17:11:30;18.73;;;6.43;;
21554;SDS011;10938;44.794;-0.676;2022-11-23T17:13:56;18.73;;;6.47;;
21554;SDS011;10938;44.794;-0.676;2022-11-23T17:16:23;17.35;;;5.82;;
21554;SDS011;10938;44.794;-0.676;2022-11-23T17:18:50;23.27;;;6.72;;
21554;SDS011;10938;44.794;-0.676;2022-11-23T17:21:16;20.73;;;6.50;;
21554;SDS011;10938;44.794;-0.676;2022-11-23T17:23:42;20.40;;;6.95;;
21554;SDS011;10938;44.794;-0.676;2022-11-23T17:26:21;26.27;;;9.40;;
21554;SDS011;10938;44.794;-0.676;2022-11-23T17:28:54;16.38;;;6.45;;
21554;SDS011;10938;44.794;-0.676;2022-11-23T17:31:20;21.08;;;7.47;;
21554;SDS011;10938;44.794;-0.676;2022-11-23T17:33:47;25.55;;;9.07;;
21554;SDS011;10938;44.794;-0.676;2022-11-23T17:36:12;27.10;;;7.78;;